Impacts METAR Board
IDs:

KLAX - Los Angeles Intl, CA, US

Updated at: 1000 UTC 22 Apr 2018
Potential Impact None Slight Moderate High
Time 21/22Z 21/23Z 22/00Z 22/01Z 22/02Z 22/03Z 22/04Z 22/05Z 22/06Z 22/07Z 22/08Z 22/09Z 22/10Z
Temp70 67 65 64 62 61 61 61 60 60 60 58 58
Dewpt50 50 52 52 52 53 53 54 53 53 53 53 53
Altim29.99 29.98 29.97 29.96 29.96 29.96 29.97 29.97 29.98 29.98 29.97 29.96 29.95
VIS10 10 10 10 10 10 10 10 10 10 10 10 10
CIG-- -- 250 250 250 220 220 -- 180 180 -- -- --
CoverSCTSCTBKNBKNBKNBKNBKNSCTBKNBKNSCTSCTFEW
FltCatVFRVFRVFRVFRVFRVFRVFRVFRVFRVFRVFRVFRVFR
WX--------------------------
WDir2702702502602502502402401801050250250
WSpd14 15 12 11 11 7 8 5 5 3 3 5 4
WGst-- -- -- -- -- -- -- -- -- -- -- -- --
Raw hourly METARs
KLAX 212153Z 27014KT 10SM FEW055 SCT220 SCT280 21/10 A2999 RMK AO2 SLP156 FU FEW055 T02110100
KLAX 212253Z 27015KT 10SM FEW050 SCT220 SCT280 19/10 A2998 RMK AO2 SLP150 T01940100
KLAX 212353Z 25012KT 10SM SCT045 SCT200 BKN250 18/11 A2997 RMK AO2 SLP148 T01830111 10239 20183 56018
KLAX 220053Z 26011KT 10SM FEW045 SCT200 BKN250 18/11 A2996 RMK AO2 SLP145 T01780111
KLAX 220153Z 25011KT 10SM SCT200 BKN250 17/11 A2996 RMK AO2 SLP144 T01670111
KLAX 220253Z 25007KT 10SM SCT180 BKN220 16/12 A2996 RMK AO2 SLP145 T01610117 55003
KLAX 220353Z 24008KT 10SM SCT180 BKN220 16/12 A2997 RMK AO2 SLP146 T01610117
KLAX 220453Z 24005KT 10SM SCT180 16/12 A2997 RMK AO2 SLP147 T01610122
KLAX 220553Z 18005KT 10SM BKN180 16/12 A2998 RMK AO2 SLP149 T01560117 10183 20156 51005
KLAX 220653Z 01003KT 10SM BKN180 16/12 A2998 RMK AO2 SLP149 T01560117
KLAX 220753Z 05003KT 10SM SCT180 16/12 A2997 RMK AO2 SLP147 T01560117 402440117
KLAX 220853Z 25005KT 10SM SCT180 14/12 A2996 RMK AO2 SLP144 T01440117 58005
KLAX 220953Z 25004KT 10SM FEW180 14/12 A2995 RMK AO2 SLP140 T01440117



Page loaded:  10:53 UTC  |   03:53 AM Pacific  |   04:53 AM Mountain  |   05:53 AM Central  |   06:53 AM Eastern

 

ADVISORIES

FORECASTS

FORECASTS

OBSERVATIONS

USER TOOLS

ABOUT US